Talmage, Nebraska
Current Conditions -  °F | °C
As of 6:35 PM on Friday 19 Dec 2014 (Local Time) from KAFK Reporting Station
Haze Haze  
Wind Chill: 24°   Ceiling: 1300
Heat Index: 31°   Visibility: 5mi
Dew Point: 31°   Wind: 7mph
Humidity: 100%   Direction: 180°S
Pressure: 30.17"   Gusts: NA
Location:  40.53°N, 96.02°W
Report Text: KAFK 200035Z AUTO 18006KT 5SM BR SCT005 OVC013 M01/M01 A3017 RMK AO2 T10081008
Loading
Personal Weather Stations






























Interactive Weather Map New forecast layout! Learn more

10-Day Weather Forecast

Advertisements
Track Severe Weather on mobile